Time,TemperatureF,DewpointF,PressureIn,WindDirection,WindDirectionDegrees,WindSpeedMPH,WindSpeedGustMPH,Humidity,HourlyPrecipIn,Conditions,Clouds,dailyrainin,SolarRadiationWatts/m^2,SoftwareType,DateUTC
2013-02-15 00:01:00,20.4,16.1,30.97,WNW,300,8.0,21.0,83,0.00,,,0.00,204,Wunderground v.1.15,2013-02-15 06:01:00,
2013-02-15 00:08:00,20.3,16.0,30.97,NW,320,8.0,21.0,83,0.00,,,0.00,204,Wunderground v.1.15,2013-02-15 06:08:00,
2013-02-15 00:13:00,20.2,15.9,30.97,NW,310,7.0,11.0,83,0.00,,,0.00,202,Wunderground v.1.15,2013-02-15 06:13:00,
2013-02-15 00:19:00,20.1,16.0,24.07,NW,309,8.0,8.0,84,0.00,,,0.00,204,Wunderground v.1.15,2013-02-15 06:19:00,
2013-02-15 00:25:00,20.0,15.9,24.07,NW,321,7.0,8.0,84,0.00,,,0.00,202,Wunderground v.1.15,2013-02-15 06:25:00,
2013-02-15 00:31:00,19.9,15.8,24.07,NNW,335,7.0,7.0,84,0.00,,,0.00,202,Wunderground v.1.15,2013-02-15 06:31:00,
2013-02-15 00:38:00,19.9,15.8,24.07,NW,316,7.0,9.0,84,0.00,,,0.00,202,Wunderground v.1.15,2013-02-15 06:38:00,
2013-02-15 00:43:00,19.8,16.0,24.07,NW,317,6.0,8.0,85,0.00,,,0.00,202,Wunderground v.1.15,2013-02-15 06:43:00,
2013-02-15 00:49:00,19.8,16.0,24.07,NW,319,7.0,7.0,85,0.00,,,0.00,202,Wunderground v.1.15,2013-02-15 06:49:00,
2013-02-15 00:56:00,19.8,15.7,24.07,NW,315,6.0,7.0,84,0.00,,,0.00,202,Wunderground v.1.15,2013-02-15 06:56:00,
2013-02-15 01:01:00,19.8,16.0,30.39,NW,311,6.0,20.0,85,0.00,,,0.00,200,Wunderground v.1.15,2013-02-15 07:01:00,
2013-02-15 01:08:00,19.7,15.9,30.39,NW,312,6.0,20.0,85,0.00,,,0.00,200,Wunderground v.1.15,2013-02-15 07:08:00,
2013-02-15 01:13:00,19.6,15.8,30.39,NW,304,6.0,7.0,85,0.00,,,0.00,200,Wunderground v.1.15,2013-02-15 07:13:00,
2013-02-15 01:19:00,19.7,15.9,30.39,NW,317,7.0,7.0,85,0.00,,,0.00,202,Wunderground v.1.15,2013-02-15 07:19:00,
2013-02-15 01:26:00,19.5,15.7,24.10,NW,324,5.0,7.0,85,0.00,,,0.00,200,Wunderground v.1.15,2013-02-15 07:26:00,
2013-02-15 01:31:00,19.6,15.6,24.10,NW,308,5.0,6.0,84,0.00,,,0.00,200,Wunderground v.1.15,2013-02-15 07:31:00,
2013-02-15 01:38:00,19.6,15.6,30.39,NW,312,5.0,6.0,84,0.00,,,0.00,199,Wunderground v.1.15,2013-02-15 07:38:00,
2013-02-15 01:43:00,19.5,15.7,30.39,NW,309,5.0,6.0,85,0.00,,,0.00,197,Wunderground v.1.15,2013-02-15 07:43:00,
2013-02-15 01:49:00,19.5,15.7,30.40,WNW,298,6.0,6.0,85,0.00,,,0.00,200,Wunderground v.1.15,2013-02-15 07:49:00,
2013-02-15 01:56:00,19.4,15.6,30.40,WNW,300,6.0,6.0,85,0.00,,,0.00,197,Wunderground v.1.15,2013-02-15 07:56:00,
2013-02-15 02:01:00,19.3,15.8,30.40,WNW,289,5.0,13.0,86,0.00,,,0.00,199,Wunderground v.1.15,2013-02-15 08:01:00,
2013-02-15 02:08:00,19.0,15.5,30.40,West,277,5.0,13.0,86,0.00,,,0.00,195,Wunderground v.1.15,2013-02-15 08:08:00,
2013-02-15 02:13:00,18.9,15.7,30.40,WNW,282,6.0,8.0,87,0.00,,,0.00,195,Wunderground v.1.15,2013-02-15 08:13:00,
2013-02-15 02:19:00,18.9,15.7,30.40,WNW,288,6.0,6.0,87,0.00,,,0.00,195,Wunderground v.1.15,2013-02-15 08:19:00,
2013-02-15 02:26:00,19.0,15.8,30.41,WNW,292,7.0,7.0,87,0.00,,,0.00,195,Wunderground v.1.15,2013-02-15 08:26:00,
2013-02-15 02:31:00,19.1,15.6,30.41,WNW,297,6.0,6.0,86,0.00,,,0.00,197,Wunderground v.1.15,2013-02-15 08:31:00,
2013-02-15 02:38:00,18.9,15.4,30.41,WNW,290,6.0,6.0,86,0.00,,,0.00,195,Wunderground v.1.15,2013-02-15 08:38:00,
2013-02-15 02:43:00,18.8,15.3,30.41,West,280,5.0,6.0,86,0.00,,,0.00,195,Wunderground v.1.15,2013-02-15 08:43:00,
2013-02-15 02:49:00,18.6,15.1,30.41,WNW,285,6.0,6.0,86,0.00,,,0.00,195,Wunderground v.1.15,2013-02-15 08:49:00,
2013-02-15 02:56:00,18.6,15.1,30.41,WNW,284,6.0,6.0,86,0.00,,,0.00,195,Wunderground v.1.15,2013-02-15 08:56:00,
2013-02-15 03:01:00,18.7,15.2,30.41,West,280,6.0,11.0,86,0.00,,,0.00,195,Wunderground v.1.15,2013-02-15 09:01:00,
2013-02-15 03:08:00,18.5,14.7,30.41,WNW,293,5.0,11.0,85,0.00,,,0.00,192,Wunderground v.1.15,2013-02-15 09:08:00,
2013-02-15 03:13:00,18.6,14.8,30.41,WNW,295,6.0,7.0,85,0.00,,,0.00,193,Wunderground v.1.15,2013-02-15 09:13:00,
2013-02-15 03:19:00,18.6,14.8,30.41,WNW,294,6.0,7.0,85,0.00,,,0.00,195,Wunderground v.1.15,2013-02-15 09:19:00,
2013-02-15 03:26:00,18.5,14.5,30.41,West,280,6.0,7.0,84,0.00,,,0.00,192,Wunderground v.1.15,2013-02-15 09:26:00,
2013-02-15 03:31:00,18.5,14.5,30.41,West,279,5.0,6.0,84,0.00,,,0.00,193,Wunderground v.1.15,2013-02-15 09:31:00,
2013-02-15 03:38:00,18.3,14.3,30.41,West,277,5.0,6.0,84,0.00,,,0.00,190,Wunderground v.1.15,2013-02-15 09:38:00,
2013-02-15 03:43:00,18.3,14.5,30.41,WNW,286,5.0,6.0,85,0.00,,,0.00,192,Wunderground v.1.15,2013-02-15 09:43:00,
2013-02-15 03:49:00,18.2,14.4,30.41,WNW,286,5.0,5.0,85,0.00,,,0.00,192,Wunderground v.1.15,2013-02-15 09:49:00,
2013-02-15 03:56:00,18.2,14.4,30.41,WNW,291,4.0,5.0,85,0.00,,,0.00,190,Wunderground v.1.15,2013-02-15 09:56:00,
2013-02-15 04:01:00,18.1,14.4,30.41,WNW,284,4.0,5.0,85,0.00,,,0.00,188,Wunderground v.1.15,2013-02-15 10:01:00,
2013-02-15 04:08:00,18.0,14.3,30.41,West,281,3.0,10.0,85,0.00,,,0.00,188,Wunderground v.1.15,2013-02-15 10:08:00,
2013-02-15 04:13:00,18.1,14.4,30.42,WNW,284,4.0,5.0,85,0.00,,,0.00,190,Wunderground v.1.15,2013-02-15 10:13:00,
2013-02-15 04:19:00,18.1,14.1,30.42,WNW,285,4.0,4.0,84,0.00,,,0.00,188,Wunderground v.1.15,2013-02-15 10:19:00,
2013-02-15 04:26:00,17.9,14.2,30.42,West,277,4.0,5.0,85,0.00,,,0.00,190,Wunderground v.1.15,2013-02-15 10:26:00,
2013-02-15 04:31:00,17.6,13.9,30.42,West,277,4.0,4.0,85,0.00,,,0.00,188,Wunderground v.1.15,2013-02-15 10:31:00,
2013-02-15 04:38:00,17.5,13.8,30.42,West,276,3.0,4.0,85,0.00,,,0.00,185,Wunderground v.1.15,2013-02-15 10:38:00,
2013-02-15 04:43:00,17.3,13.6,30.42,West,281,3.0,4.0,85,0.00,,,0.00,186,Wunderground v.1.15,2013-02-15 10:43:00,
2013-02-15 04:49:00,17.4,13.9,30.42,WNW,286,4.0,4.0,86,0.00,,,0.00,186,Wunderground v.1.15,2013-02-15 10:49:00,
2013-02-15 04:56:00,17.5,14.0,30.42,WNW,294,4.0,5.0,86,0.00,,,0.00,186,Wunderground v.1.15,2013-02-15 10:56:00,
2013-02-15 05:01:00,17.6,14.1,30.42,WNW,288,4.0,10.0,86,0.00,,,0.00,186,Wunderground v.1.15,2013-02-15 11:01:00,
2013-02-15 05:08:00,17.6,14.1,30.42,WNW,294,3.0,10.0,86,0.00,,,0.00,186,Wunderground v.1.15,2013-02-15 11:08:00,
2013-02-15 05:13:00,17.6,14.1,30.42,WNW,299,3.0,3.0,86,0.00,,,0.00,186,Wunderground v.1.15,2013-02-15 11:13:00,
2013-02-15 05:19:00,17.5,14.0,30.42,WNW,300,3.0,3.0,86,0.00,,,0.00,186,Wunderground v.1.15,2013-02-15 11:19:00,
2013-02-15 05:26:00,17.4,13.9,30.43,WNW,298,3.0,3.0,86,0.00,,,0.00,185,Wunderground v.1.15,2013-02-15 11:26:00,
2013-02-15 05:31:00,17.6,14.4,30.43,WNW,293,3.0,3.0,87,0.00,,,0.00,186,Wunderground v.1.15,2013-02-15 11:31:00,
2013-02-15 05:38:00,17.6,14.1,30.43,WNW,299,3.0,4.0,86,0.00,,,0.00,186,Wunderground v.1.15,2013-02-15 11:38:00,
2013-02-15 05:43:00,17.5,14.3,30.43,NW,304,3.0,3.0,87,0.00,,,0.00,186,Wunderground v.1.15,2013-02-15 11:43:00,
2013-02-15 05:49:00,17.3,13.8,30.43,NW,307,3.0,3.0,86,0.00,,,0.00,186,Wunderground v.1.15,2013-02-15 11:49:00,
2013-02-15 05:56:00,17.1,13.9,30.43,WNW,302,3.0,4.0,87,0.00,,,0.00,183,Wunderground v.1.15,2013-02-15 11:56:00,
2013-02-15 06:01:00,17.1,13.9,30.44,WNW,299,3.0,4.0,87,0.00,,,0.00,183,Wunderground v.1.15,2013-02-15 12:01:00,
2013-02-15 06:08:00,17.0,13.8,30.43,WNW,300,3.0,7.0,87,0.00,,,0.00,183,Wunderground v.1.15,2013-02-15 12:08:00,
2013-02-15 06:13:00,16.9,13.7,30.43,WNW,302,3.0,3.0,87,0.00,,,0.00,181,Wunderground v.1.15,2013-02-15 12:13:00,
2013-02-15 06:19:00,16.8,13.6,30.43,WNW,296,3.0,3.0,87,0.00,,,0.00,179,Wunderground v.1.15,2013-02-15 12:19:00,
2013-02-15 06:26:00,16.8,13.6,30.43,WNW,298,3.0,4.0,87,0.00,,,0.00,174,Wunderground v.1.15,2013-02-15 12:26:00,
2013-02-15 06:31:00,16.8,13.6,30.43,WNW,296,3.0,4.0,87,0.00,,,0.00,167,Wunderground v.1.15,2013-02-15 12:31:00,
2013-02-15 06:38:00,16.9,13.7,30.43,WNW,296,3.0,4.0,87,0.00,,,0.00,160,Wunderground v.1.15,2013-02-15 12:38:00,
2013-02-15 06:43:00,16.9,13.7,30.43,WNW,297,2.0,3.0,87,0.00,,,0.00,151,Wunderground v.1.15,2013-02-15 12:43:00,
2013-02-15 06:49:00,16.9,13.7,30.43,WNW,297,2.0,2.0,87,0.00,,,0.00,142,Wunderground v.1.15,2013-02-15 12:49:00,
2013-02-15 06:56:00,17.0,13.8,30.43,WNW,297,2.0,2.0,87,0.00,,,0.00,132,Wunderground v.1.15,2013-02-15 12:56:00,
2013-02-15 07:01:00,17.1,13.9,30.43,WNW,296,1.0,2.0,87,0.00,,,0.00,121,Wunderground v.1.15,2013-02-15 13:01:00,
2013-02-15 07:08:00,17.1,13.9,30.43,WNW,296,2.0,6.0,87,0.00,,,0.00,116,Wunderground v.1.15,2013-02-15 13:08:00,
2013-02-15 07:13:00,17.2,14.0,30.43,WNW,289,2.0,2.0,87,0.00,,,0.00,111,Wunderground v.1.15,2013-02-15 13:13:00,
2013-02-15 07:19:00,17.5,14.3,30.43,WNW,288,3.0,4.0,87,0.00,,,0.00,107,Wunderground v.1.15,2013-02-15 13:19:00,
2013-02-15 07:26:00,17.7,14.5,30.43,WNW,287,3.0,4.0,87,0.00,,,0.00,105,Wunderground v.1.15,2013-02-15 13:26:00,
2013-02-15 07:31:00,17.8,14.6,30.43,WNW,288,3.0,4.0,87,0.00,,,0.00,102,Wunderground v.1.15,2013-02-15 13:31:00,
2013-02-15 07:38:00,17.8,14.6,30.43,WNW,288,3.0,4.0,87,0.00,,,0.00,98,Wunderground v.1.15,2013-02-15 13:38:00,
2013-02-15 07:43:00,17.8,14.6,30.43,WNW,288,2.0,4.0,87,0.00,,,0.00,91,Wunderground v.1.15,2013-02-15 13:43:00,
2013-02-15 07:49:00,18.0,15.0,30.43,WNW,288,3.0,3.0,88,0.00,,,0.00,90,Wunderground v.1.15,2013-02-15 13:49:00,
2013-02-15 07:56:00,18.8,16.1,22.97,WNW,286,3.0,4.0,89,0.00,,,0.00,88,Wunderground v.1.15,2013-02-15 13:56:00,
2013-02-15 08:01:00,19.8,17.1,22.97,WNW,287,4.0,6.0,89,0.00,,,0.00,88,Wunderground v.1.15,2013-02-15 14:01:00,
2013-02-15 08:08:00,20.9,17.6,20.23,WNW,286,5.0,6.0,87,0.00,,,0.00,90,Wunderground v.1.15,2013-02-15 14:08:00,
2013-02-15 08:13:00,21.4,18.1,20.23,WNW,284,5.0,6.0,87,0.00,,,0.00,95,Wunderground v.1.15,2013-02-15 14:13:00,
2013-02-15 08:19:00,22.0,18.5,20.23,WNW,294,5.0,5.0,86,0.00,,,0.00,97,Wunderground v.1.15,2013-02-15 14:19:00,
2013-02-15 08:26:00,22.5,18.7,21.07,WNW,286,6.0,7.0,85,0.00,,,0.00,100,Wunderground v.1.15,2013-02-15 14:26:00,
2013-02-15 08:31:00,22.8,19.0,20.17,WNW,303,6.0,6.0,85,0.00,,,0.00,102,Wunderground v.1.15,2013-02-15 14:31:00,
2013-02-15 08:38:00,23.4,19.3,16.37,WNW,295,6.0,7.0,84,0.00,,,0.00,104,Wunderground v.1.15,2013-02-15 14:38:00,
2013-02-15 08:43:00,23.8,19.4,20.17,WNW,292,7.0,7.0,83,0.00,,,0.00,105,Wunderground v.1.15,2013-02-15 14:43:00,
2013-02-15 08:49:00,24.1,19.7,20.17,WNW,302,7.0,7.0,83,0.00,,,0.00,105,Wunderground v.1.15,2013-02-15 14:49:00,
2013-02-15 08:56:00,24.5,19.5,20.17,WNW,302,7.0,9.0,81,0.00,,,0.00,107,Wunderground v.1.15,2013-02-15 14:56:00,
2013-02-15 09:01:00,24.7,19.7,20.17,WNW,302,8.0,9.0,81,0.00,,,0.00,109,Wunderground v.1.15,2013-02-15 15:01:00,
2013-02-15 09:08:00,24.9,19.6,20.17,WNW,303,7.0,10.0,80,0.00,,,0.00,111,Wunderground v.1.15,2013-02-15 15:08:00,
2013-02-15 09:13:00,24.9,19.3,32.49,NW,310,7.0,12.0,79,0.00,,,0.00,111,Wunderground v.1.15,2013-02-15 15:13:00,
2013-02-15 09:19:00,25.2,19.6,32.49,NW,309,7.0,7.0,79,0.00,,,0.00,113,Wunderground v.1.15,2013-02-15 15:19:00,
2013-02-15 09:26:00,25.4,19.2,20.17,NW,308,6.0,7.0,77,0.00,,,0.00,113,Wunderground v.1.15,2013-02-15 15:26:00,
2013-02-15 09:31:00,25.7,19.5,20.17,WNW,300,5.0,5.0,77,0.00,,,0.00,114,Wunderground v.1.15,2013-02-15 15:31:00,
2013-02-15 09:38:00,25.9,19.1,20.16,NW,306,5.0,6.0,75,0.00,,,0.00,116,Wunderground v.1.15,2013-02-15 15:38:00,
2013-02-15 09:43:00,26.4,19.5,20.16,NW,313,4.0,5.0,75,0.00,,,0.00,120,Wunderground v.1.15,2013-02-15 15:43:00,
2013-02-15 09:49:00,26.4,18.9,20.16,NW,306,4.0,5.0,73,0.00,,,0.00,120,Wunderground v.1.15,2013-02-15 15:49:00,
2013-02-15 09:56:00,26.6,19.4,20.16,WNW,303,4.0,6.0,74,0.00,,,0.00,118,Wunderground v.1.15,2013-02-15 15:56:00,
2013-02-15 10:01:00,26.7,18.9,20.15,NW,318,4.0,12.0,72,0.00,,,0.00,120,Wunderground v.1.15,2013-02-15 16:01:00,
2013-02-15 10:08:00,26.7,19.2,22.05,WNW,302,2.0,12.0,73,0.00,,,0.00,120,Wunderground v.1.15,2013-02-15 16:08:00,
2013-02-15 10:13:00,27.0,19.2,20.14,WNW,290,3.0,4.0,72,0.00,,,0.00,121,Wunderground v.1.15,2013-02-15 16:13:00,
2013-02-15 10:19:00,27.1,18.9,20.14,WNW,296,4.0,4.0,71,0.00,,,0.00,123,Wunderground v.1.15,2013-02-15 16:19:00,
2013-02-15 10:26:00,27.4,19.2,20.14,West,273,4.0,6.0,71,0.00,,,0.00,125,Wunderground v.1.15,2013-02-15 16:26:00,
2013-02-15 10:31:00,27.5,19.3,20.13,WNW,285,4.0,4.0,71,0.00,,,0.00,125,Wunderground v.1.15,2013-02-15 16:31:00,
2013-02-15 10:38:00,27.7,19.8,28.56,WSW,252,3.0,4.0,72,0.00,,,0.00,127,Wunderground v.1.15,2013-02-15 16:38:00,
2013-02-15 10:43:00,27.9,20.0,28.56,West,265,4.0,5.0,72,0.00,,,0.00,128,Wunderground v.1.15,2013-02-15 16:43:00,
2013-02-15 10:49:00,27.9,19.7,28.56,West,276,4.0,5.0,71,0.00,,,0.00,128,Wunderground v.1.15,2013-02-15 16:49:00,
2013-02-15 10:56:00,28.2,19.7,23.92,WNW,302,3.0,5.0,70,0.00,,,0.00,132,Wunderground v.1.15,2013-02-15 16:56:00,
2013-02-15 11:01:00,28.4,19.5,20.11,West,263,3.0,12.0,69,0.00,,,0.00,135,Wunderground v.1.15,2013-02-15 17:01:00,
2013-02-15 11:08:00,28.6,19.4,20.10,West,272,4.0,12.0,68,0.00,,,0.00,134,Wunderground v.1.15,2013-02-15 17:08:00,
2013-02-15 11:13:00,28.4,18.5,22.00,West,275,5.0,7.0,66,0.00,,,0.00,132,Wunderground v.1.15,2013-02-15 17:13:00,
2013-02-15 11:19:00,28.4,19.2,20.10,West,268,6.0,9.0,68,0.00,,,0.00,130,Wunderground v.1.15,2013-02-15 17:19:00,
2013-02-15 11:26:00,28.7,19.8,20.10,West,261,6.0,9.0,69,0.00,,,0.00,128,Wunderground v.1.15,2013-02-15 17:26:00,
2013-02-15 11:31:00,28.8,19.6,27.70,WNW,296,7.0,8.0,68,0.00,,,0.00,130,Wunderground v.1.15,2013-02-15 17:31:00,
2013-02-15 11:38:00,28.7,19.8,22.00,West,267,8.0,9.0,69,0.00,,,0.00,127,Wunderground v.1.15,2013-02-15 17:38:00,
2013-02-15 11:43:00,28.7,20.1,29.59,West,268,8.0,9.0,70,0.00,,,0.00,125,Wunderground v.1.15,2013-02-15 17:43:00,
2013-02-15 11:49:00,28.3,20.1,29.59,WSW,256,7.0,7.0,71,0.00,,,0.00,125,Wunderground v.1.15,2013-02-15 17:49:00,
2013-02-15 11:56:00,28.4,19.9,29.59,WSW,253,7.0,9.0,70,0.00,,,0.00,127,Wunderground v.1.15,2013-02-15 17:56:00,
2013-02-15 12:01:00,28.7,19.8,29.59,WSW,252,7.0,9.0,69,0.00,,,0.00,128,Wunderground v.1.15,2013-02-15 18:01:00,
2013-02-15 12:08:00,29.2,20.6,31.48,WSW,257,6.0,9.0,70,0.00,,,0.00,132,Wunderground v.1.15,2013-02-15 18:08:00,
2013-02-15 12:13:00,29.7,20.8,31.48,WSW,246,6.0,10.0,69,0.00,,,0.00,137,Wunderground v.1.15,2013-02-15 18:13:00,
2013-02-15 12:19:00,30.1,21.2,21.97,SW,218,7.0,7.0,69,0.00,,,0.00,141,Wunderground v.1.15,2013-02-15 18:19:00,
2013-02-15 12:26:00,30.5,20.8,29.57,WSW,247,7.0,7.0,67,0.00,,,0.00,142,Wunderground v.1.15,2013-02-15 18:26:00,
2013-02-15 12:31:00,30.6,20.9,27.67,WSW,244,8.0,13.0,67,0.00,,,0.00,144,Wunderground v.1.15,2013-02-15 18:31:00,
2013-02-15 12:38:00,30.9,21.9,27.67,WSW,245,9.0,13.0,69,0.00,,,0.00,142,Wunderground v.1.15,2013-02-15 18:38:00,
2013-02-15 12:43:00,31.5,21.8,27.67,SW,217,8.0,10.0,67,0.00,,,0.00,146,Wunderground v.1.15,2013-02-15 18:43:00,
2013-02-15 12:49:00,32.0,22.3,27.67,SW,221,7.0,7.0,67,0.00,,,0.00,153,Wunderground v.1.15,2013-02-15 18:49:00,
2013-02-15 12:56:00,32.2,21.7,20.05,WSW,240,6.0,7.0,65,0.00,,,0.00,153,Wunderground v.1.15,2013-02-15 18:56:00,
2013-02-15 13:01:00,32.5,21.7,31.45,SW,234,7.0,14.0,64,0.00,,,0.00,153,Wunderground v.1.15,2013-02-15 19:01:00,
2013-02-15 13:08:00,32.8,20.8,31.45,West,275,11.0,14.0,61,0.00,,,0.00,155,Wunderground v.1.15,2013-02-15 19:08:00,
2013-02-15 13:13:00,33.2,21.6,20.04,WSW,257,9.0,11.0,62,0.00,,,0.00,160,Wunderground v.1.15,2013-02-15 19:13:00,
2013-02-15 13:19:00,34.1,20.9,20.04,West,263,9.0,9.0,58,0.00,,,0.00,163,Wunderground v.1.15,2013-02-15 19:19:00,
2013-02-15 13:26:00,33.7,20.9,20.02,West,259,10.0,11.0,59,0.00,,,0.00,165,Wunderground v.1.15,2013-02-15 19:26:00,
2013-02-15 13:31:00,33.6,20.4,20.01,West,264,10.0,10.0,58,0.00,,,0.00,163,Wunderground v.1.15,2013-02-15 19:31:00,
2013-02-15 13:38:00,33.4,19.4,23.81,West,279,9.0,10.0,56,0.00,,,0.00,158,Wunderground v.1.15,2013-02-15 19:38:00,
2013-02-15 13:43:00,33.4,18.9,23.81,WNW,284,8.0,9.0,55,0.00,,,0.00,156,Wunderground v.1.15,2013-02-15 19:43:00,
2013-02-15 13:49:00,33.3,18.9,21.91,West,281,7.0,13.0,55,0.00,,,0.00,155,Wunderground v.1.15,2013-02-15 19:49:00,
2013-02-15 13:56:00,32.9,18.9,20.01,West,281,9.0,13.0,56,0.00,,,0.00,151,Wunderground v.1.15,2013-02-15 19:56:00,
2013-02-15 14:01:00,32.7,19.9,20.01,West,281,10.0,18.0,59,0.00,,,0.00,148,Wunderground v.1.15,2013-02-15 20:01:00,
2013-02-15 14:08:00,32.6,20.2,27.61,WNW,302,9.0,18.0,60,0.00,,,0.00,149,Wunderground v.1.15,2013-02-15 20:08:00,
2013-02-15 14:13:00,32.8,20.0,29.51,WNW,303,7.0,8.0,59,0.00,,,0.00,149,Wunderground v.1.15,2013-02-15 20:13:00,
2013-02-15 14:19:00,33.1,19.5,23.80,WNW,295,7.0,11.0,57,0.00,,,0.00,153,Wunderground v.1.15,2013-02-15 20:19:00,
2013-02-15 14:26:00,33.0,19.0,25.70,NW,311,8.0,11.0,56,0.00,,,0.00,153,Wunderground v.1.15,2013-02-15 20:26:00,
2013-02-15 14:31:00,32.8,19.6,25.70,WNW,300,9.0,10.0,58,0.00,,,0.00,148,Wunderground v.1.15,2013-02-15 20:31:00,
2013-02-15 14:38:00,32.6,20.6,21.90,West,281,10.0,17.0,61,0.00,,,0.00,146,Wunderground v.1.15,2013-02-15 20:38:00,
2013-02-15 14:43:00,31.9,22.2,21.89,WNW,294,11.0,11.0,67,0.00,,,0.00,144,Wunderground v.1.15,2013-02-15 20:43:00,
2013-02-15 14:49:00,31.7,21.6,21.89,NW,311,10.0,10.0,66,0.00,,,0.00,144,Wunderground v.1.15,2013-02-15 20:49:00,
2013-02-15 14:56:00,31.9,21.8,27.60,NW,306,9.0,10.0,66,0.00,,,0.00,144,Wunderground v.1.15,2013-02-15 20:56:00,
2013-02-15 15:01:00,31.6,22.2,29.50,WNW,286,10.0,20.0,68,0.00,,,0.00,142,Wunderground v.1.15,2013-02-15 21:01:00,
2013-02-15 15:08:00,30.6,23.6,23.79,West,280,12.0,20.0,75,0.00,,,0.00,135,Wunderground v.1.15,2013-02-15 21:08:00,
2013-02-15 15:13:00,29.9,24.5,21.89,West,271,12.0,14.0,80,0.00,,,0.00,130,Wunderground v.1.15,2013-02-15 21:13:00,
2013-02-15 15:19:00,29.4,25.4,29.50,WNW,282,11.0,11.0,85,0.00,,,0.00,130,Wunderground v.1.15,2013-02-15 21:19:00,
2013-02-15 15:26:00,29.0,25.9,23.80,West,279,10.0,13.0,88,0.00,,,0.00,125,Wunderground v.1.15,2013-02-15 21:26:00,
2013-02-15 15:31:00,28.5,25.7,23.80,West,281,11.0,13.0,89,0.00,,,0.00,123,Wunderground v.1.15,2013-02-15 21:31:00,
2013-02-15 15:38:00,28.4,26.1,19.99,WNW,286,11.0,13.0,91,0.00,,,0.00,123,Wunderground v.1.15,2013-02-15 21:38:00,
2013-02-15 15:43:00,28.2,25.9,19.99,NW,314,9.0,11.0,91,0.00,,,0.00,130,Wunderground v.1.15,2013-02-15 21:43:00,
2013-02-15 15:49:00,27.8,25.8,27.61,NW,319,8.0,8.0,92,0.00,,,0.00,123,Wunderground v.1.15,2013-02-15 21:49:00,
2013-02-15 15:56:00,27.4,25.4,20.00,WNW,303,10.0,12.0,92,0.00,,,0.00,118,Wunderground v.1.15,2013-02-15 21:56:00,
2013-02-15 16:01:00,27.1,25.1,20.00,NNW,339,9.0,17.0,92,0.00,,,0.00,118,Wunderground v.1.15,2013-02-15 22:01:00,
2013-02-15 16:08:00,26.9,24.9,21.90,NW,326,6.0,17.0,92,0.00,,,0.00,120,Wunderground v.1.15,2013-02-15 22:08:00,
2013-02-15 16:13:00,27.0,25.2,21.90,NNW,344,4.0,6.0,93,0.00,,,0.00,121,Wunderground v.1.15,2013-02-15 22:13:00,
2013-02-15 16:19:00,27.2,25.4,31.41,NNW,328,3.0,3.0,93,0.00,,,0.00,123,Wunderground v.1.15,2013-02-15 22:19:00,
2013-02-15 16:26:00,27.6,25.8,20.00,NW,325,4.0,4.0,93,0.00,,,0.00,128,Wunderground v.1.15,2013-02-15 22:26:00,
2013-02-15 16:31:00,28.1,26.3,27.61,NW,305,4.0,5.0,93,0.00,,,0.00,139,Wunderground v.1.15,2013-02-15 22:31:00,
2013-02-15 16:38:00,28.2,26.4,20.00,NW,321,5.0,7.0,93,0.00,,,0.00,141,Wunderground v.1.15,2013-02-15 22:38:00,
2013-02-15 16:43:00,28.1,26.1,25.69,NW,311,7.0,8.0,92,0.00,,,0.00,130,Wunderground v.1.15,2013-02-15 22:43:00,
2013-02-15 16:49:00,28.0,26.0,29.49,WNW,298,8.0,8.0,92,0.00,,,0.00,123,Wunderground v.1.15,2013-02-15 22:49:00,
2013-02-15 16:55:00,28.1,25.8,23.78,NW,314,9.0,10.0,91,0.00,,,0.00,123,Wunderground v.1.15,2013-02-15 22:55:00,
2013-02-15 17:01:00,28.3,26.0,23.78,WNW,291,10.0,16.0,91,0.00,,,0.00,125,Wunderground v.1.15,2013-02-15 23:01:00,
2013-02-15 17:08:00,28.0,24.9,25.70,NW,305,11.0,16.0,88,0.00,,,0.00,125,Wunderground v.1.15,2013-02-15 23:08:00,
2013-02-15 17:13:00,27.8,24.4,25.70,WNW,303,11.0,12.0,87,0.00,,,0.00,121,Wunderground v.1.15,2013-02-15 23:13:00,
2013-02-15 17:19:00,27.6,23.7,20.00,WNW,295,11.0,11.0,85,0.00,,,0.00,128,Wunderground v.1.15,2013-02-15 23:19:00,
2013-02-15 17:26:00,27.3,23.9,23.82,NW,323,14.0,18.0,87,0.00,,,0.00,121,Wunderground v.1.15,2013-02-15 23:26:00,
2013-02-15 17:31:00,26.3,23.5,23.82,NW,313,16.0,18.0,89,0.00,,,0.00,118,Wunderground v.1.15,2013-02-15 23:31:00,
2013-02-15 17:38:00,25.8,23.5,25.74,WNW,300,14.0,18.0,91,0.00,,,0.00,114,Wunderground v.1.15,2013-02-15 23:38:00,
2013-02-15 17:43:00,25.5,23.2,20.04,NW,319,13.0,16.0,91,0.00,,,0.00,120,Wunderground v.1.15,2013-02-15 23:43:00,
2013-02-15 17:49:00,25.5,23.2,20.04,NW,321,12.0,12.0,91,0.00,,,0.00,127,Wunderground v.1.15,2013-02-15 23:49:00,
2013-02-15 17:56:00,25.3,22.5,20.04,NW,323,12.0,16.0,89,0.00,,,0.00,132,Wunderground v.1.15,2013-02-15 23:56:00,
2013-02-15 18:01:00,25.1,21.5,20.04,WNW,301,13.0,15.0,86,0.00,,,0.00,134,Wunderground v.1.15,2013-02-16 00:01:00,
2013-02-15 18:08:00,24.9,20.8,23.87,NW,325,12.0,16.0,84,0.00,,,0.00,139,Wunderground v.1.15,2013-02-16 00:08:00,
2013-02-15 18:13:00,24.8,20.4,23.87,NNW,336,11.0,17.0,83,0.00,,,0.00,144,Wunderground v.1.15,2013-02-16 00:13:00,
2013-02-15 18:19:00,24.6,19.9,23.87,NW,313,10.0,12.0,82,0.00,,,0.00,149,Wunderground v.1.15,2013-02-16 00:19:00,
2013-02-15 18:26:00,24.7,20.0,23.87,NNW,327,10.0,12.0,82,0.00,,,0.00,160,Wunderground v.1.15,2013-02-16 00:26:00,
2013-02-15 18:31:00,24.7,20.0,23.87,NNW,336,10.0,14.0,82,0.00,,,0.00,172,Wunderground v.1.15,2013-02-16 00:31:00,
2013-02-15 18:38:00,24.8,20.1,20.11,NW,319,11.0,14.0,82,0.00,,,0.00,185,Wunderground v.1.15,2013-02-16 00:38:00,
2013-02-15 18:43:00,24.8,19.8,20.12,NW,310,11.0,12.0,81,0.00,,,0.00,197,Wunderground v.1.15,2013-02-16 00:43:00,
2013-02-15 18:49:00,24.7,19.4,20.13,NW,307,10.0,10.0,80,0.00,,,0.00,206,Wunderground v.1.15,2013-02-16 00:49:00,
2013-02-15 18:56:00,24.5,18.9,20.13,NW,321,9.0,10.0,79,0.00,,,0.00,211,Wunderground v.1.15,2013-02-16 00:56:00,
2013-02-15 19:01:00,24.3,18.7,22.89,NW,321,8.0,28.0,79,0.00,,,0.00,213,Wunderground v.1.15,2013-02-16 01:01:00,
2013-02-15 19:08:00,24.1,18.5,20.15,NW,326,8.0,28.0,79,0.00,,,0.00,214,Wunderground v.1.15,2013-02-16 01:08:00,
2013-02-15 19:13:00,23.9,18.3,25.65,NW,315,8.0,13.0,79,0.00,,,0.00,214,Wunderground v.1.15,2013-02-16 01:13:00,
2013-02-15 19:19:00,23.6,18.0,20.16,NW,323,7.0,7.0,79,0.00,,,0.00,213,Wunderground v.1.15,2013-02-16 01:19:00,
2013-02-15 19:26:00,23.1,17.8,20.16,NW,323,6.0,7.0,80,0.00,,,0.00,211,Wunderground v.1.15,2013-02-16 01:26:00,
2013-02-15 19:31:00,22.7,17.7,20.16,NW,304,6.0,6.0,81,0.00,,,0.00,206,Wunderground v.1.15,2013-02-16 01:31:00,
2013-02-15 19:38:00,22.6,17.6,20.16,NW,321,6.0,6.0,81,0.00,,,0.00,206,Wunderground v.1.15,2013-02-16 01:38:00,
2013-02-15 19:43:00,22.4,17.5,20.16,NW,325,5.0,6.0,81,0.00,,,0.00,200,Wunderground v.1.15,2013-02-16 01:43:00,
2013-02-15 19:49:00,22.1,17.2,20.16,NNW,330,5.0,5.0,81,0.00,,,0.00,202,Wunderground v.1.15,2013-02-16 01:49:00,
2013-02-15 19:56:00,21.8,17.2,20.16,WNW,297,5.0,5.0,82,0.00,,,0.00,202,Wunderground v.1.15,2013-02-16 01:56:00,
2013-02-15 20:01:00,21.6,17.0,20.16,NNW,333,4.0,17.0,82,0.00,,,0.00,199,Wunderground v.1.15,2013-02-16 02:01:00,
2013-02-15 20:08:00,21.5,16.9,20.16,NNW,332,5.0,17.0,82,0.00,,,0.00,200,Wunderground v.1.15,2013-02-16 02:08:00,
2013-02-15 20:13:00,21.3,16.7,20.16,WNW,303,4.0,5.0,82,0.00,,,0.00,197,Wunderground v.1.15,2013-02-16 02:13:00,
2013-02-15 20:19:00,21.2,16.6,20.16,NNW,335,4.0,4.0,82,0.00,,,0.00,199,Wunderground v.1.15,2013-02-16 02:19:00,
2013-02-15 20:26:00,21.2,16.6,20.16,NNW,339,5.0,8.0,82,0.00,,,0.00,199,Wunderground v.1.15,2013-02-16 02:26:00,
2013-02-15 20:31:00,21.0,16.1,20.16,NW,316,6.0,6.0,81,0.00,,,0.00,199,Wunderground v.1.15,2013-02-16 02:31:00,
2013-02-15 20:38:00,20.6,16.0,20.16,NW,324,5.0,6.0,82,0.00,,,0.00,197,Wunderground v.1.15,2013-02-16 02:38:00,
2013-02-15 20:43:00,20.3,15.7,24.11,NW,314,5.0,6.0,82,0.00,,,0.00,193,Wunderground v.1.15,2013-02-16 02:43:00,
2013-02-15 20:49:00,20.0,15.7,24.11,NW,311,5.0,5.0,83,0.00,,,0.00,192,Wunderground v.1.15,2013-02-16 02:49:00,
2013-02-15 20:56:00,19.9,15.6,24.11,NW,324,5.0,5.0,83,0.00,,,0.00,190,Wunderground v.1.15,2013-02-16 02:56:00,
2013-02-15 21:01:00,19.8,15.5,24.11,NNW,336,5.0,6.0,83,0.00,,,0.00,192,Wunderground v.1.15,2013-02-16 03:01:00,
2013-02-15 21:08:00,19.7,15.4,24.11,NNW,336,5.0,13.0,83,0.00,,,0.00,190,Wunderground v.1.15,2013-02-16 03:08:00,
2013-02-15 21:13:00,19.4,15.1,24.11,NW,318,5.0,5.0,83,0.00,,,0.00,188,Wunderground v.1.15,2013-02-16 03:13:00,
2013-02-15 21:19:00,19.0,14.7,24.11,NW,312,4.0,4.0,83,0.00,,,0.00,185,Wunderground v.1.15,2013-02-16 03:19:00,
2013-02-15 21:26:00,18.4,14.4,30.97,NW,312,3.0,4.0,84,0.00,,,0.00,185,Wunderground v.1.15,2013-02-16 03:26:00,
2013-02-15 21:31:00,17.9,13.9,30.97,NW,311,3.0,4.0,84,0.00,,,0.00,179,Wunderground v.1.15,2013-02-16 03:31:00,
2013-02-15 21:38:00,17.5,13.8,30.45,NW,309,3.0,5.0,85,0.00,,,0.00,179,Wunderground v.1.15,2013-02-16 03:38:00,
2013-02-15 21:43:00,17.2,13.7,30.45,NW,309,3.0,3.0,86,0.00,,,0.00,176,Wunderground v.1.15,2013-02-16 03:43:00,
2013-02-15 21:49:00,17.0,13.5,30.45,NW,310,3.0,3.0,86,0.00,,,0.00,176,Wunderground v.1.15,2013-02-16 03:49:00,
2013-02-15 21:56:00,16.6,13.1,30.45,NW,310,3.0,4.0,86,0.00,,,0.00,172,Wunderground v.1.15,2013-02-16 03:56:00,
2013-02-15 22:01:00,16.4,12.9,30.45,NW,309,3.0,11.0,86,0.00,,,0.00,172,Wunderground v.1.15,2013-02-16 04:01:00,
2013-02-15 22:08:00,16.2,13.0,29.53,NW,308,4.0,11.0,87,0.00,,,0.00,171,Wunderground v.1.15,2013-02-16 04:08:00,
2013-02-15 22:13:00,15.7,12.3,23.07,NW,308,4.0,4.0,86,0.00,,,0.00,171,Wunderground v.1.15,2013-02-16 04:13:00,
2013-02-15 22:19:00,15.1,11.7,23.07,NW,308,3.0,3.0,86,0.00,,,0.00,167,Wunderground v.1.15,2013-02-16 04:19:00,
2013-02-15 22:26:00,15.0,11.8,23.07,NW,308,3.0,4.0,87,0.00,,,0.00,167,Wunderground v.1.15,2013-02-16 04:26:00,
2013-02-15 22:31:00,14.8,11.6,23.07,NW,307,3.0,3.0,87,0.00,,,0.00,167,Wunderground v.1.15,2013-02-16 04:31:00,
2013-02-15 22:38:00,15.0,12.1,30.46,NW,306,4.0,4.0,88,0.00,,,0.00,167,Wunderground v.1.15,2013-02-16 04:38:00,
2013-02-15 22:43:00,15.6,12.9,30.46,NW,304,4.0,4.0,89,0.00,,,0.00,171,Wunderground v.1.15,2013-02-16 04:43:00,
2013-02-15 22:49:00,15.9,13.0,30.45,NW,309,4.0,4.0,88,0.00,,,0.00,172,Wunderground v.1.15,2013-02-16 04:49:00,
2013-02-15 22:56:00,16.5,13.6,30.45,NW,309,4.0,9.0,88,0.00,,,0.00,174,Wunderground v.1.15,2013-02-16 04:56:00,
2013-02-15 23:01:00,16.4,13.2,30.45,NW,304,5.0,9.0,87,0.00,,,0.00,176,Wunderground v.1.15,2013-02-16 05:01:00,
2013-02-15 23:03:00,16.3,13.1,30.45,NW,307,5.0,9.0,87,0.00,,,0.00,176,Wunderground v.1.15,2013-02-16 05:03:00,
2013-02-15 23:06:00,16.2,12.7,30.45,NW,305,4.0,9.0,86,0.00,,,0.00,176,Wunderground v.1.15,2013-02-16 05:06:00,
2013-02-15 23:09:00,15.9,12.5,30.45,NW,304,4.0,4.0,86,0.00,,,0.00,174,Wunderground v.1.15,2013-02-16 05:09:00,
2013-02-15 23:16:00,15.7,12.5,24.17,NW,310,3.0,4.0,87,0.00,,,0.00,174,Wunderground v.1.15,2013-02-16 05:16:00,
2013-02-15 23:21:00,15.7,12.5,24.17,NW,308,3.0,3.0,87,0.00,,,0.00,172,Wunderground v.1.15,2013-02-16 05:21:00,
2013-02-15 23:28:00,15.3,11.9,24.17,NW,306,3.0,4.0,86,0.00,,,0.00,172,Wunderground v.1.15,2013-02-16 05:28:00,
2013-02-15 23:33:00,14.8,11.4,24.17,WNW,303,3.0,4.0,86,0.00,,,0.00,171,Wunderground v.1.15,2013-02-16 05:33:00,
2013-02-15 23:39:00,14.1,10.7,30.45,WNW,303,3.0,3.0,86,0.00,,,0.00,165,Wunderground v.1.15,2013-02-16 05:39:00,
2013-02-15 23:46:00,13.4,10.0,30.45,WNW,303,2.0,3.0,86,0.00,,,0.00,162,Wunderground v.1.15,2013-02-16 05:46:00,
2013-02-15 23:51:00,13.1,10.0,30.45,WNW,303,2.0,2.0,87,0.00,,,0.00,163,Wunderground v.1.15,2013-02-16 05:51:00,
2013-02-15 23:58:00,12.7,9.6,30.44,WNW,303,1.0,2.0,87,0.00,,,0.00,158,Wunderground v.1.15,2013-02-16 05:58:00,